createdAt,value
2018-09-20T00:01:03.052Z,98981.00
2018-09-20T00:03:30.796Z,98983.00
2018-09-20T00:05:59.565Z,98981.00
2018-09-20T00:08:27.602Z,98978.00
2018-09-20T00:10:55.374Z,98980.00
2018-09-20T00:13:23.270Z,98985.00
2018-09-20T00:15:51.061Z,98982.00
2018-09-20T00:18:19.405Z,98981.00
2018-09-20T00:20:47.185Z,98979.00
2018-09-20T00:23:14.904Z,98981.00
2018-09-20T00:25:42.938Z,98972.00
2018-09-20T00:28:10.744Z,98970.00
2018-09-20T00:30:38.541Z,98964.00
2018-09-20T00:33:06.681Z,98969.00
2018-09-20T00:35:34.446Z,98968.00
2018-09-20T00:38:02.220Z,98971.00
2018-09-20T00:40:30.045Z,98967.00
2018-09-20T00:42:57.840Z,98965.00
2018-09-20T00:45:25.617Z,98964.00
2018-09-20T00:47:53.453Z,98963.00
2018-09-20T00:50:21.204Z,98957.00
2018-09-20T00:52:48.911Z,98956.00
2018-09-20T00:55:16.733Z,98955.00
2018-09-20T00:57:44.496Z,98954.00
2018-09-20T01:00:12.188Z,98956.00
2018-09-20T01:02:40.124Z,98956.00
2018-09-20T01:05:07.935Z,98957.00
2018-09-20T01:07:35.685Z,98960.00
2018-09-20T01:10:04.124Z,98960.00
2018-09-20T01:12:31.985Z,98960.00
2018-09-20T01:14:59.782Z,98959.00
2018-09-20T01:17:27.740Z,98956.00
2018-09-20T01:19:55.521Z,98954.00
2018-09-20T01:22:23.240Z,98954.00
2018-09-20T01:24:51.056Z,98958.00
2018-09-20T01:27:18.774Z,98962.00
2018-09-20T01:29:46.484Z,98961.00
2018-09-20T01:32:14.247Z,98959.00
2018-09-20T01:34:42.056Z,98963.00
2018-09-20T01:37:09.849Z,98965.00
2018-09-20T01:39:38.081Z,98959.00
2018-09-20T01:42:06.839Z,98959.00
2018-09-20T01:44:34.604Z,98961.00
2018-09-20T01:47:02.589Z,98961.00
2018-09-20T01:49:30.288Z,98967.00
2018-09-20T01:51:58.002Z,98965.00
2018-09-20T01:54:25.737Z,98963.00
2018-09-20T01:56:53.468Z,98965.00
2018-09-20T01:59:21.248Z,98964.00
2018-09-20T02:01:49.061Z,98964.00
2018-09-20T02:04:16.824Z,98959.00
2018-09-20T02:06:44.528Z,98960.00
2018-09-20T02:09:12.320Z,98958.00
2018-09-20T02:11:40.381Z,98959.00
2018-09-20T02:14:08.136Z,98959.00
2018-09-20T02:16:36.365Z,98955.00
2018-09-20T02:19:04.288Z,98959.00
2018-09-20T02:21:32.105Z,98957.00
2018-09-20T02:24:00.099Z,98957.00
2018-09-20T02:26:27.890Z,98956.00
2018-09-20T02:28:55.709Z,98963.00
2018-09-20T02:31:23.761Z,98966.00
2018-09-20T02:33:51.480Z,98972.00
2018-09-20T02:36:19.229Z,98973.00
2018-09-20T02:38:47.054Z,98976.00
2018-09-20T02:41:14.869Z,98977.00
2018-09-20T02:43:42.579Z,98977.00
2018-09-20T02:46:10.352Z,98980.00
2018-09-20T02:48:38.153Z,98977.00
2018-09-20T02:51:05.881Z,98980.00
2018-09-20T02:53:34.054Z,98979.00
2018-09-20T02:56:01.853Z,98982.00
2018-09-20T02:58:29.644Z,98977.00
2018-09-20T03:00:58.193Z,98977.00
2018-09-20T03:03:26.082Z,98985.00
2018-09-20T03:05:53.895Z,98988.00
2018-09-20T03:08:21.824Z,98988.00
2018-09-20T03:10:49.642Z,98990.00
2018-09-20T03:13:17.713Z,98989.00
2018-09-20T03:15:45.476Z,98989.00
2018-09-20T03:18:13.213Z,98986.00
2018-09-20T03:20:40.977Z,98989.00
2018-09-20T03:23:08.755Z,98984.00
2018-09-20T03:25:36.529Z,98984.00
2018-09-20T03:28:04.805Z,98980.00
2018-09-20T03:30:32.997Z,98983.00
2018-09-20T03:33:00.640Z,98989.00
2018-09-20T03:35:28.437Z,98986.00
2018-09-20T03:37:56.432Z,98991.00
2018-09-20T03:40:24.192Z,98990.00
2018-09-20T03:42:51.966Z,98991.00
2018-09-20T03:45:19.732Z,98994.00
2018-09-20T03:47:47.468Z,98996.00
2018-09-20T03:50:15.288Z,98990.00
2018-09-20T03:52:43.128Z,98990.00
2018-09-20T03:55:10.919Z,98992.00
2018-09-20T03:57:38.644Z,98994.00
2018-09-20T04:00:06.818Z,98998.00
2018-09-20T04:02:34.719Z,98993.00
2018-09-20T04:05:02.682Z,98995.00
2018-09-20T04:07:31.558Z,98994.00
2018-09-20T04:09:59.332Z,98993.00
2018-09-20T04:12:27.148Z,98994.00
2018-09-20T04:14:54.982Z,98999.00
2018-09-20T04:17:22.704Z,98998.00
2018-09-20T04:19:50.573Z,98999.00
2018-09-20T04:22:18.284Z,98997.00
2018-09-20T04:24:46.052Z,99000.00
2018-09-20T04:27:13.817Z,99002.00
2018-09-20T04:29:41.607Z,99003.00
2018-09-20T04:32:09.400Z,99001.00
2018-09-20T04:34:37.181Z,99007.00
2018-09-20T04:37:04.928Z,99005.00
2018-09-20T04:39:32.734Z,99005.00
2018-09-20T04:42:00.492Z,99009.00
2018-09-20T04:44:28.336Z,99012.00
2018-09-20T04:46:56.204Z,99012.00
2018-09-20T04:49:23.944Z,99020.00
2018-09-20T04:51:51.754Z,99020.00
2018-09-20T04:54:19.479Z,99023.00
2018-09-20T04:56:47.259Z,99023.00
2018-09-20T04:59:15.041Z,99022.00
2018-09-20T05:01:42.808Z,99024.00
2018-09-20T05:04:10.595Z,99033.00
2018-09-20T05:06:38.305Z,99029.00
2018-09-20T05:09:10.380Z,99035.00
2018-09-20T05:11:38.136Z,99036.00
2018-09-20T05:14:06.017Z,99030.00
2018-09-20T05:16:34.106Z,99031.00
2018-09-20T05:19:01.870Z,99033.00
2018-09-20T05:21:29.820Z,99027.00
2018-09-20T05:23:57.568Z,99026.00
2018-09-20T05:26:25.965Z,99021.00
2018-09-20T05:28:53.770Z,99026.00
2018-09-20T05:31:21.817Z,99025.00
2018-09-20T05:33:49.709Z,99018.00
2018-09-20T05:36:17.493Z,99022.00
2018-09-20T05:38:45.233Z,99022.00
2018-09-20T05:41:13.370Z,99022.00
2018-09-20T05:43:41.157Z,99020.00
2018-09-20T05:46:09.056Z,99021.00
2018-09-20T05:48:36.813Z,99019.00
2018-09-20T05:51:05.321Z,99019.00
2018-09-20T05:53:33.440Z,99020.00
2018-09-20T05:56:01.260Z,99024.00
2018-09-20T05:58:29.058Z,99023.00
2018-09-20T06:00:57.041Z,99022.00
2018-09-20T06:03:24.860Z,99029.00
2018-09-20T06:05:52.734Z,99025.00
2018-09-20T06:08:20.609Z,99014.00
2018-09-20T06:10:48.555Z,99017.00
2018-09-20T06:13:16.403Z,99020.00
2018-09-20T06:15:44.195Z,99017.00
2018-09-20T06:18:11.995Z,99018.00
2018-09-20T06:20:39.972Z,99013.00
2018-09-20T06:23:07.853Z,99013.00
2018-09-20T06:25:35.685Z,98998.00
2018-09-20T06:28:03.424Z,99000.00
2018-09-20T06:30:31.231Z,99000.00
2018-09-20T06:32:59.052Z,99006.00
2018-09-20T06:35:27.001Z,99001.00
2018-09-20T06:37:54.816Z,99000.00
2018-09-20T06:40:22.619Z,98995.00
2018-09-20T06:42:50.456Z,98991.00
2018-09-20T06:45:18.840Z,98972.00
2018-09-20T06:47:46.707Z,98967.00
2018-09-20T06:50:14.482Z,98968.00
2018-09-20T06:52:42.262Z,98965.00
2018-09-20T06:55:10.142Z,98963.00
2018-09-20T06:57:37.908Z,98967.00
2018-09-20T07:00:07.032Z,98966.00
2018-09-20T07:02:35.161Z,98962.00
2018-09-20T07:05:03.905Z,98960.00
2018-09-20T07:07:31.756Z,98959.00
2018-09-20T07:09:59.820Z,98956.00
2018-09-20T07:12:28.320Z,98950.00
2018-09-20T07:14:56.324Z,98946.00
2018-09-20T07:17:24.178Z,98942.00
2018-09-20T07:19:52.347Z,98938.00
2018-09-20T07:22:20.351Z,98938.00
2018-09-20T07:24:48.236Z,98928.00
2018-09-20T07:27:16.064Z,98929.00
2018-09-20T07:29:43.877Z,98926.00
2018-09-20T07:32:11.956Z,98922.00
2018-09-20T07:34:40.063Z,98922.00
2018-09-20T07:37:07.836Z,98922.00
2018-09-20T07:39:35.556Z,98918.00
2018-09-20T07:42:03.554Z,98918.00
2018-09-20T07:44:31.340Z,98919.00
2018-09-20T07:46:59.114Z,98908.00
2018-09-20T07:49:26.912Z,98914.00
2018-09-20T07:51:54.696Z,98912.00
2018-09-20T07:54:22.584Z,98904.00
2018-09-20T07:56:50.374Z,98904.00
2018-09-20T07:59:18.249Z,98895.00
2018-09-20T08:01:46.147Z,98895.00
2018-09-20T08:04:14.825Z,98894.00
2018-09-20T08:06:42.940Z,98896.00
2018-09-20T08:09:11.812Z,98896.00
2018-09-20T08:11:39.509Z,98888.00
2018-09-20T08:14:07.667Z,98889.00
2018-09-20T08:16:35.414Z,98897.00
2018-09-20T08:19:04.010Z,98906.00
2018-09-20T08:21:31.923Z,98897.00
2018-09-20T08:23:59.752Z,98899.00
2018-09-20T08:26:27.500Z,98906.00
2018-09-20T08:28:55.588Z,98896.00
2018-09-20T08:31:23.977Z,98892.00
2018-09-20T08:33:51.681Z,98902.00
2018-09-20T08:36:19.456Z,98900.00
2018-09-20T08:38:47.232Z,98909.00
2018-09-20T08:41:15.076Z,98908.00
2018-09-20T08:43:42.856Z,98906.00
2018-09-20T08:46:10.604Z,98905.00
2018-09-20T08:48:38.384Z,98917.00
2018-09-20T08:51:06.324Z,98919.00
2018-09-20T08:53:33.984Z,98913.00
2018-09-20T08:56:01.813Z,98922.00
2018-09-20T08:58:32.600Z,98917.00
2018-09-20T09:01:02.577Z,98911.00
2018-09-20T09:03:30.508Z,98903.00
2018-09-20T09:05:58.349Z,98900.00
2018-09-20T09:08:26.268Z,98901.00
2018-09-20T09:10:54.080Z,98899.00
2018-09-20T09:13:21.943Z,98897.00
2018-09-20T09:15:50.584Z,98893.00
2018-09-20T09:18:18.421Z,98883.00
2018-09-20T09:20:46.376Z,98885.00
2018-09-20T09:23:14.169Z,98882.00
2018-09-20T09:25:42.079Z,98888.00
2018-09-20T09:28:09.864Z,98892.00
2018-09-20T09:30:37.780Z,98882.00
2018-09-20T09:33:05.853Z,98879.00
2018-09-20T09:35:34.285Z,98881.00
2018-09-20T09:38:02.073Z,98884.00
2018-09-20T09:40:30.165Z,98887.00
2018-09-20T09:42:57.905Z,98881.00
2018-09-20T09:45:25.688Z,98887.00
2018-09-20T09:47:53.600Z,98873.00
2018-09-20T09:50:21.419Z,98874.00
2018-09-20T09:52:49.189Z,98870.00
2018-09-20T09:55:17.081Z,98866.00
2018-09-20T09:57:49.432Z,98873.00
2018-09-20T10:00:22.414Z,98873.00
2018-09-20T10:02:50.277Z,98874.00
2018-09-20T10:05:18.081Z,98868.00
2018-09-20T10:07:45.834Z,98872.00
2018-09-20T10:10:13.633Z,98873.00
2018-09-20T10:12:41.724Z,98877.00
2018-09-20T10:15:09.596Z,98867.00
2018-09-20T10:17:37.541Z,98866.00
2018-09-20T10:20:05.556Z,98859.00
2018-09-20T10:22:33.291Z,98852.00
2018-09-20T10:25:01.252Z,98847.00
2018-09-20T10:27:29.057Z,98855.00
2018-09-20T10:29:56.898Z,98852.00
2018-09-20T10:32:28.052Z,98846.00
2018-09-20T10:34:55.879Z,98843.00
2018-09-20T10:37:23.612Z,98835.00
2018-09-20T10:39:51.659Z,98832.00
2018-09-20T10:42:19.432Z,98831.00
2018-09-20T10:44:47.196Z,98829.00
2018-09-20T10:47:15.075Z,98821.00
2018-09-20T10:49:42.888Z,98818.00
2018-09-20T10:52:10.885Z,98814.00
2018-09-20T10:54:38.804Z,98816.00
2018-09-20T10:57:06.705Z,98814.00
2018-09-20T10:59:34.490Z,98816.00
2018-09-20T11:02:02.562Z,98815.00
2018-09-20T11:04:30.349Z,98813.00
2018-09-20T11:06:58.136Z,98800.00
2018-09-20T11:09:26.162Z,98803.00
2018-09-20T11:11:53.996Z,98798.00
2018-09-20T11:14:21.740Z,98798.00
2018-09-20T11:16:49.552Z,98801.00
2018-09-20T11:19:18.108Z,98801.00
2018-09-20T11:21:46.017Z,98806.00
2018-09-20T11:24:13.833Z,98802.00
2018-09-20T11:26:41.597Z,98795.00
2018-09-20T11:29:09.357Z,98791.00
2018-09-20T11:31:37.199Z,98784.00
2018-09-20T11:34:05.412Z,98792.00
2018-09-20T11:36:33.164Z,98776.00
2018-09-20T11:39:01.069Z,98782.00
2018-09-20T11:41:28.870Z,98781.00
2018-09-20T11:43:56.717Z,98777.00
2018-09-20T11:46:24.516Z,98767.00
2018-09-20T11:48:52.470Z,98770.00
2018-09-20T11:51:20.302Z,98775.00
2018-09-20T11:53:48.172Z,98763.00
2018-09-20T11:56:16.424Z,98763.00
2018-09-20T11:58:44.225Z,98752.00
2018-09-20T12:01:12.100Z,98750.00
2018-09-20T12:03:39.837Z,98750.00
2018-09-20T12:06:07.608Z,98751.00
2018-09-20T12:08:35.380Z,98751.00
2018-09-20T12:11:03.241Z,98736.00
2018-09-20T12:13:31.069Z,98735.00
2018-09-20T12:15:58.876Z,98724.00
2018-09-20T12:18:26.908Z,98738.00
2018-09-20T12:20:54.738Z,98733.00
2018-09-20T12:23:22.532Z,98730.00
2018-09-20T12:25:50.427Z,98722.00
2018-09-20T12:28:19.285Z,98717.00
2018-09-20T12:30:47.052Z,98713.00
2018-09-20T12:33:14.856Z,98708.00
2018-09-20T12:35:42.725Z,98711.00
2018-09-20T12:38:10.492Z,98707.00
2018-09-20T12:40:38.451Z,98707.00
2018-09-20T12:43:06.296Z,98708.00
2018-09-20T12:45:34.037Z,98706.00
2018-09-20T12:48:02.026Z,98707.00
2018-09-20T12:50:29.820Z,98700.00
2018-09-20T12:52:57.756Z,98683.00
2018-09-20T12:55:25.608Z,98694.00
2018-09-20T12:57:53.418Z,98690.00
2018-09-20T13:00:21.320Z,98690.00
2018-09-20T13:02:49.154Z,98686.00
2018-09-20T13:05:17.020Z,98681.00
2018-09-20T13:07:44.889Z,98671.00
2018-09-20T13:10:12.761Z,98672.00
2018-09-20T13:12:40.633Z,98672.00
2018-09-20T13:15:08.540Z,98672.00
2018-09-20T13:17:36.436Z,98661.00
2018-09-20T13:20:04.494Z,98665.00
2018-09-20T13:22:32.329Z,98664.00
2018-09-20T13:25:00.093Z,98660.00
2018-09-20T13:27:27.980Z,98656.00
2018-09-20T13:29:55.783Z,98657.00
2018-09-20T13:32:23.484Z,98664.00
2018-09-20T13:34:51.273Z,98663.00
2018-09-20T13:37:19.161Z,98670.00
2018-09-20T13:39:46.881Z,98664.00
2018-09-20T13:42:14.815Z,98662.00
2018-09-20T13:44:42.648Z,98659.00
2018-09-20T13:47:10.506Z,98651.00
2018-09-20T13:49:38.329Z,98642.00
2018-09-20T13:52:06.637Z,98644.00
2018-09-20T13:54:34.369Z,98638.00
2018-09-20T13:57:02.201Z,98644.00
2018-09-20T13:59:30.084Z,98634.00
2018-09-20T14:01:58.032Z,98640.00
2018-09-20T14:04:25.813Z,98640.00
2018-09-20T14:06:53.674Z,98635.00
2018-09-20T14:09:21.396Z,98635.00
2018-09-20T14:11:49.213Z,98637.00
2018-09-20T14:14:17.024Z,98630.00
2018-09-20T14:16:44.928Z,98628.00
2018-09-20T14:19:12.672Z,98622.00
2018-09-20T14:21:40.476Z,98632.00
2018-09-20T14:24:08.248Z,98629.00
2018-09-20T14:26:36.013Z,98620.00
2018-09-20T14:29:03.808Z,98620.00
2018-09-20T14:31:31.589Z,98617.00
2018-09-20T14:33:59.325Z,98614.00
2018-09-20T14:36:27.376Z,98608.00
2018-09-20T14:38:55.126Z,98603.00
2018-09-20T14:41:22.904Z,98617.00
2018-09-20T14:43:50.777Z,98616.00
2018-09-20T14:46:18.612Z,98614.00
2018-09-20T14:48:46.452Z,98611.00
2018-09-20T14:51:14.218Z,98608.00
2018-09-20T14:53:42.125Z,98601.00
2018-09-20T14:56:09.973Z,98604.00
2018-09-20T14:58:37.693Z,98599.00
2018-09-20T15:01:06.546Z,98594.00
2018-09-20T15:03:34.649Z,98596.00
2018-09-20T15:06:02.605Z,98594.00
2018-09-20T15:08:30.408Z,98594.00
2018-09-20T15:10:58.626Z,98593.00
2018-09-20T15:13:26.693Z,98588.00
2018-09-20T15:15:54.440Z,98578.00
2018-09-20T15:18:22.157Z,98584.00
2018-09-20T15:20:49.900Z,98583.00
2018-09-20T15:23:17.736Z,98585.00
2018-09-20T15:25:45.577Z,98583.00
2018-09-20T15:28:13.323Z,98577.00
2018-09-20T15:30:41.156Z,98576.00
2018-09-20T15:33:09.120Z,98580.00
2018-09-20T15:35:36.909Z,98571.00
2018-09-20T15:38:04.969Z,98568.00
2018-09-20T15:40:32.781Z,98563.00
2018-09-20T15:43:00.668Z,98566.00
2018-09-20T15:45:28.393Z,98558.00
2018-09-20T15:47:56.136Z,98557.00
2018-09-20T15:50:23.982Z,98560.00
2018-09-20T15:52:51.749Z,98555.00
2018-09-20T15:55:19.901Z,98555.00
2018-09-20T15:57:47.741Z,98547.00
2018-09-20T16:00:15.509Z,98548.00
2018-09-20T16:02:43.396Z,98548.00
2018-09-20T16:05:11.128Z,98550.00
2018-09-20T16:07:38.946Z,98548.00
2018-09-20T16:10:07.061Z,98545.00
2018-09-20T16:12:34.908Z,98545.00
2018-09-20T16:15:02.730Z,98544.00
2018-09-20T16:17:30.597Z,98542.00
2018-09-20T16:19:58.392Z,98544.00
2018-09-20T16:22:26.124Z,98539.00
2018-09-20T16:24:54.684Z,98531.00
2018-09-20T16:27:22.556Z,98528.00
2018-09-20T16:30:09.414Z,98523.00
2018-09-20T16:35:16.589Z,98518.00
2018-09-20T16:38:03.959Z,98519.00
2018-09-20T16:40:36.896Z,98516.00
2018-09-20T16:43:05.400Z,98518.00
2018-09-20T16:45:33.880Z,98512.00
2018-09-20T16:48:01.645Z,98510.00
2018-09-20T16:50:29.365Z,98509.00
2018-09-20T16:52:57.150Z,98517.00
2018-09-20T16:55:25.547Z,98516.00
2018-09-20T16:57:53.284Z,98518.00
2018-09-20T17:00:21.036Z,98520.00
2018-09-20T17:02:48.861Z,98521.00
2018-09-20T17:05:16.792Z,98516.00
2018-09-20T17:07:44.589Z,98519.00
2018-09-20T17:10:12.708Z,98513.00
2018-09-20T17:12:40.499Z,98512.00
2018-09-20T17:15:08.442Z,98515.00
2018-09-20T17:17:36.101Z,98512.00
2018-09-20T17:20:04.172Z,98511.00
2018-09-20T17:22:31.950Z,98515.00
2018-09-20T17:24:59.866Z,98512.00
2018-09-20T17:27:27.568Z,98509.00
2018-09-20T17:29:56.038Z,98511.00
2018-09-20T17:32:23.880Z,98516.00
2018-09-20T17:34:51.804Z,98513.00
2018-09-20T17:37:21.647Z,98515.00
2018-09-20T17:39:51.624Z,98513.00
2018-09-20T17:42:21.128Z,98505.00
2018-09-20T17:44:48.893Z,98510.00
2018-09-20T17:47:16.714Z,98508.00
2018-09-20T17:49:44.741Z,98512.00
2018-09-20T17:52:13.324Z,98511.00
2018-09-20T17:54:42.371Z,98504.00
2018-09-20T17:57:11.237Z,98509.00
2018-09-20T17:59:38.987Z,98507.00
2018-09-20T18:02:06.816Z,98506.00
2018-09-20T18:04:34.628Z,98509.00
2018-09-20T18:07:02.383Z,98505.00
2018-09-20T18:09:30.169Z,98509.00
2018-09-20T18:11:58.007Z,98510.00
2018-09-20T18:14:25.988Z,98514.00
2018-09-20T18:16:54.108Z,98512.00
2018-09-20T18:19:21.986Z,98507.00
2018-09-20T18:21:50.396Z,98507.00
2018-09-20T18:24:18.165Z,98506.00
2018-09-20T18:26:45.996Z,98506.00
2018-09-20T18:29:13.792Z,98507.00
2018-09-20T18:31:41.601Z,98508.00
2018-09-20T18:34:10.340Z,98508.00
2018-09-20T18:36:38.076Z,98504.00
2018-09-20T18:39:10.197Z,98502.00
2018-09-20T18:41:37.929Z,98501.00
2018-09-20T18:44:06.205Z,98499.00
2018-09-20T18:46:34.109Z,98500.00
2018-09-20T18:49:01.917Z,98504.00
2018-09-20T18:51:29.676Z,98505.00
2018-09-20T18:53:57.484Z,98506.00
2018-09-20T18:56:25.420Z,98501.00
2018-09-20T18:58:53.418Z,98498.00
2018-09-20T19:01:21.169Z,98501.00
2018-09-20T19:03:49.004Z,98499.00
2018-09-20T19:06:16.800Z,98496.00
2018-09-20T19:08:44.675Z,98491.00
2018-09-20T19:11:12.510Z,98494.00
2018-09-20T19:13:40.520Z,98490.00
2018-09-20T19:16:08.308Z,98486.00
2018-09-20T19:18:36.108Z,98483.00
2018-09-20T19:21:03.933Z,98477.00
2018-09-20T19:23:31.757Z,98475.00
2018-09-20T19:25:59.452Z,98479.00
2018-09-20T19:28:27.269Z,98479.00
2018-09-20T19:30:55.040Z,98473.00
2018-09-20T19:33:22.902Z,98472.00
2018-09-20T19:35:50.664Z,98466.00
2018-09-20T19:38:18.573Z,98467.00
2018-09-20T19:40:46.392Z,98461.00
2018-09-20T19:43:14.173Z,98460.00
2018-09-20T19:45:41.996Z,98455.00
2018-09-20T19:48:09.792Z,98456.00
2018-09-20T19:50:37.613Z,98451.00
2018-09-20T19:53:05.537Z,98458.00
2018-09-20T19:55:33.292Z,98457.00
2018-09-20T19:58:01.097Z,98460.00
2018-09-20T20:00:29.094Z,98455.00
2018-09-20T20:02:56.869Z,98451.00
2018-09-20T20:05:24.757Z,98454.00
2018-09-20T20:07:52.936Z,98451.00
2018-09-20T20:10:20.753Z,98447.00
2018-09-20T20:12:48.617Z,98443.00
2018-09-20T20:15:16.442Z,98447.00
2018-09-20T20:17:44.223Z,98446.00
2018-09-20T20:20:12.017Z,98445.00
2018-09-20T20:22:39.809Z,98442.00
2018-09-20T20:25:07.604Z,98443.00
2018-09-20T20:27:35.353Z,98439.00
2018-09-20T20:30:03.258Z,98441.00
2018-09-20T20:32:31.116Z,98433.00
2018-09-20T20:34:58.850Z,98431.00
2018-09-20T20:37:26.824Z,98436.00
2018-09-20T20:39:54.745Z,98431.00
2018-09-20T20:42:22.479Z,98431.00
2018-09-20T20:44:50.337Z,98429.00
2018-09-20T20:47:18.102Z,98428.00
2018-09-20T20:49:45.874Z,98427.00
2018-09-20T20:52:14.258Z,98428.00
2018-09-20T20:54:42.085Z,98422.00
2018-09-20T20:57:09.864Z,98426.00
2018-09-20T20:59:37.760Z,98417.00
2018-09-20T21:02:05.572Z,98420.00
2018-09-20T21:04:33.397Z,98423.00
2018-09-20T21:07:01.264Z,98414.00
2018-09-20T21:09:29.005Z,98413.00
2018-09-20T21:11:56.745Z,98410.00
2018-09-20T21:14:24.538Z,98410.00
2018-09-20T21:16:52.266Z,98409.00
2018-09-20T21:19:20.128Z,98402.00
2018-09-20T21:21:48.008Z,98407.00
2018-09-20T21:24:15.835Z,98401.00
2018-09-20T21:26:43.697Z,98402.00
2018-09-20T21:29:11.496Z,98395.00
2018-09-20T21:31:39.333Z,98391.00
2018-09-20T21:34:07.157Z,98390.00
2018-09-20T21:36:34.972Z,98395.00
2018-09-20T21:39:03.164Z,98389.00
2018-09-20T21:41:30.948Z,98389.00
2018-09-20T21:43:58.916Z,98388.00
2018-09-20T21:46:26.676Z,98388.00
2018-09-20T21:48:54.480Z,98381.00
2018-09-20T21:51:22.376Z,98382.00
2018-09-20T21:53:50.192Z,98382.00
2018-09-20T21:56:17.933Z,98377.00
2018-09-20T21:58:46.346Z,98376.00
2018-09-20T22:01:14.393Z,98370.00
2018-09-20T22:03:42.162Z,98371.00
2018-09-20T22:06:09.955Z,98366.00
2018-09-20T22:08:37.757Z,98362.00
2018-09-20T22:11:05.873Z,98360.00
2018-09-20T22:13:33.600Z,98362.00
2018-09-20T22:16:01.387Z,98361.00
2018-09-20T22:18:29.188Z,98359.00
2018-09-20T22:20:57.115Z,98362.00
2018-09-20T22:23:24.890Z,98360.00
2018-09-20T22:25:52.665Z,98363.00
2018-09-20T22:28:49.627Z,98359.00
2018-09-20T22:31:19.761Z,98361.00
2018-09-20T22:33:49.173Z,98362.00
2018-09-20T22:36:18.280Z,98356.00
2018-09-20T22:38:47.628Z,98351.00
2018-09-20T22:41:16.729Z,98351.00
2018-09-20T22:43:45.879Z,98346.00
2018-09-20T22:46:14.956Z,98344.00
2018-09-20T22:48:44.017Z,98333.00
2018-09-20T22:51:13.391Z,98330.00
2018-09-20T22:53:42.448Z,98333.00
2018-09-20T22:56:11.580Z,98330.00
2018-09-20T22:58:40.685Z,98330.00
2018-09-20T23:01:13.859Z,98333.00
2018-09-20T23:03:43.289Z,98327.00
2018-09-20T23:06:12.420Z,98334.00
2018-09-20T23:08:41.517Z,98331.00
2018-09-20T23:11:10.828Z,98330.00
2018-09-20T23:13:40.213Z,98332.00
2018-09-20T23:16:09.369Z,98329.00
2018-09-20T23:18:38.499Z,98327.00
2018-09-20T23:21:07.529Z,98326.00
2018-09-20T23:23:36.601Z,98315.00
2018-09-20T23:26:05.812Z,98318.00
2018-09-20T23:28:34.942Z,98319.00
2018-09-20T23:31:04.061Z,98316.00
2018-09-20T23:33:33.208Z,98316.00
2018-09-20T23:36:02.272Z,98313.00
2018-09-20T23:38:31.376Z,98312.00
2018-09-20T23:41:00.492Z,98300.00
2018-09-20T23:50:16.734Z,98296.00
2018-09-20T23:52:45.744Z,98298.00
2018-09-20T23:55:14.906Z,98293.00
2018-09-20T23:57:43.920Z,98290.00
